This is the latest recevied weather packets stored in our database for station/object W4IFI. If no packets are shown the sender has not sent any weather packets the latest 10 day(s).
| Time | Temp. | Humidity | Pressure | Rain* | Wind** | Luminosity | Snow |
|---|---|---|---|---|---|---|---|
| 1777128903 | 9.44° C | 28% | 1011.8 hPa | 0 mm | - | - | - |
| 1777128303 | 8.89° C | 29% | 1011.9 hPa | 0 mm | - | - | - |
| 1777124403 | 7.78° C | 36% | 1011.7 hPa | 0 mm | - | - | - |
| 1777120503 | 2.78° C | 52% | 1011.2 hPa | 0 mm | - | - | - |
| 1777119903 | 2.78° C | 50% | 1011.1 hPa | 0 mm | - | - | - |
| 1777117503 | 5° C | 43% | 1010.8 hPa | 0 mm | - | - | - |
| 1777117203 | 5.56° C | 41% | 1010.8 hPa | 0 mm | - | - | - |
| 1777111503 | 7.78° C | 39% | 1010.4 hPa | 0 mm | - | - | - |
| 1777111203 | 8.33° C | 37% | 1010.5 hPa | 0 mm | - | - | - |
| 1777110903 | 8.33° C | 38% | 1010.7 hPa | 0 mm | - | - | - |
| 1777110603 | 8.33° C | 37% | 1010.7 hPa | 0 mm | - | - | - |
| 1777110436 | 8.33° C | 37% | 1010.5 hPa | 0 mm | - | - | - |
| 1777107603 | 8.89° C | 32% | 1010.2 hPa | 0 mm | - | - | - |
| 1777107303 | 9.44° C | 31% | 1010.2 hPa | 0 mm | - | - | - |
| 1777103403 | 10° C | 26% | 1010.1 hPa | 0 mm | - | - | - |
| 1777099803 | 10° C | 28% | 1010 hPa | 0 mm | - | - | - |
| 1777098903 | 10° C | 29% | 1010.1 hPa | 0 mm | - | - | - |
| 1777096638 | 10.56° C | 27% | 1010.1 hPa | 0 mm | - | - | - |
| 1777091538 | 8.89° C | 23% | 1010.1 hPa | 0 mm | - | - | - |
| 1777090803 | 8.89° C | 24% | 1010.1 hPa | 0 mm | - | - | - |
| 1777089003 | 8.89° C | 24% | 1010 hPa | 0 mm | - | - | - |
| 1777086903 | 8.89° C | 24% | 1009.8 hPa | 0 mm | - | - | - |
| 1777086603 | 8.89° C | 24% | 1009.7 hPa | 0 mm | - | - | - |
| 1777086303 | 8.89° C | 23% | 1009.6 hPa | 0 mm | - | - | - |
| 1777081503 | 12.22° C | 18% | 1009.1 hPa | 0 mm | - | - | - |
* Rain latest hour (hover to see other rain measurements)
** Current wind speed in m/s (hover to see current wind gust speed)